»·PEaware :: AEA291 KSEA-KGEG

AEA291 :: KSEA-KGEG

FLIGHT INFORMATION

Flight Status: Arrived
Operator:
Air Europa
More flights by this operator :: More flights under this callsign
Pilot: Alfonso U. (14209)
Aircraft: BOEING 737-800
(B738)
More flights by this aircraft type
Origin: KSEA Seattle-Tacoma Intl
United States
Destination: KGEG Spokane Intl
United States
More flights between these airports :: More routes between these airports
Route: +SUMMA1 SUMMA ZADON ZELAK ZIRAN ZOOMR ZOOMR1
File this flight plan on PilotEdge
Remarks:
Altitude:
(Current/Filed)
29,000ft
Speed:
(Current/Filed)
500kts
Departed: 09-Dec-17 11:36 AM
Arrived: 09-Dec-17 12:33 PM
Distance/Time
Traveled:
194nm/0:57
Distance/Time
To Go:
Arrived

Flight Plot

Page will automatically refresh every two minutes.

Flight plan parsing failed; only flown route is shown


Map Options




Map Legend


Flown Route
Filed Route
Departure Airport
Arrival Airport
Navaid (VOR, NDB)
Fix

Horizontal Profiles

Position Reports

Time Latitude Longitude Heading Altitude Ground
Speed
09-Dec-17 11:06 47.445802 -122.304779 89 441ft 0kts
09-Dec-17 11:07 47.445802 -122.304779 89 441ft 0kts
09-Dec-17 11:08 47.445802 -122.304779 89 441ft 0kts
09-Dec-17 11:09 47.445802 -122.304779 89 441ft 0kts
09-Dec-17 11:10 47.445802 -122.304779 89 441ft 0kts
09-Dec-17 11:11 47.445802 -122.304779 89 441ft 0kts
09-Dec-17 11:12 47.445802 -122.304779 89 441ft 0kts
09-Dec-17 11:13 47.445802 -122.304779 89 441ft 0kts
09-Dec-17 11:14 47.445802 -122.304779 89 441ft 0kts
09-Dec-17 11:15 47.445802 -122.304779 89 441ft 0kts
09-Dec-17 11:16 47.445802 -122.304779 89 441ft 0kts
09-Dec-17 11:17 47.445802 -122.304779 89 441ft 0kts
09-Dec-17 11:18 47.445802 -122.304779 89 441ft 0kts
09-Dec-17 11:19 47.445802 -122.304779 89 441ft 0kts
09-Dec-17 11:20 47.445802 -122.304779 89 441ft 0kts
09-Dec-17 11:21 47.445802 -122.304779 89 441ft 0kts
09-Dec-17 11:22 47.445802 -122.304779 89 441ft 0kts
09-Dec-17 11:23 47.445802 -122.304779 89 441ft 0kts
09-Dec-17 11:24 47.445802 -122.304779 89 441ft 0kts
09-Dec-17 11:25 47.445802 -122.304779 89 441ft 0kts
09-Dec-17 11:26 47.445802 -122.304779 89 441ft 0kts
09-Dec-17 11:27 47.445802 -122.304779 89 441ft 0kts
09-Dec-17 11:28 47.445802 -122.304779 89 441ft 0kts
09-Dec-17 11:29 47.445791 -122.305025 77 441ft 2kts
09-Dec-17 11:30 47.445237 -122.305700 359 441ft 0kts
09-Dec-17 11:31 47.445237 -122.305700 359 441ft 0kts
09-Dec-17 11:32 47.445237 -122.305700 359 441ft 0kts
09-Dec-17 11:33 47.445237 -122.305700 359 441ft 0kts
09-Dec-17 11:34 47.445243 -122.305700 358 441ft 0kts
09-Dec-17 11:35 47.448828 -122.306192 358 441ft 24kts
09-Dec-17 11:36 47.457454 -122.306182 359 441ft 35kts
09-Dec-17 11:37 47.463422 -122.306657 276 441ft 0kts
09-Dec-17 11:38 47.463422 -122.306657 276 441ft 0kts
09-Dec-17 11:39 47.463422 -122.306657 276 441ft 0kts
09-Dec-17 11:40 47.463422 -122.306657 276 441ft 0kts
09-Dec-17 11:41 47.463428 -122.306751 275 441ft 2kts
09-Dec-17 11:42 47.453604 -122.307678 179 443ft 139kts
09-Dec-17 11:43 47.408542 -122.307612 179 3488ft 195kts
09-Dec-17 11:44 47.342061 -122.308479 181 6280ft 259kts
09-Dec-17 11:45 47.267382 -122.306450 165 10149ft 281kts
09-Dec-17 11:46 47.229538 -122.199935 81 12459ft 366kts
09-Dec-17 11:47 47.293921 -122.080131 40 14928ft 389kts
09-Dec-17 11:48 47.376666 -121.975718 39 16696ft 394kts
09-Dec-17 11:49 47.462162 -121.866745 39 19540ft 414kts
09-Dec-17 11:49 47.534741 -121.770615 49 21718ft 428kts
09-Dec-17 11:51 47.560486 -121.569871 93 24358ft 444kts
09-Dec-17 11:51 47.557708 -121.415402 92 26108ft 454kts
09-Dec-17 11:53 47.553966 -121.194369 91 28405ft 463kts
09-Dec-17 11:53 47.551003 -121.036052 91 29604ft 464kts
09-Dec-17 11:54 47.548209 -120.845816 91 29634ft 460kts
09-Dec-17 11:56 47.543770 -120.625293 91 29692ft 460kts
09-Dec-17 11:56 47.540055 -120.467109 91 29752ft 460kts
09-Dec-17 11:57 47.532740 -120.278389 93 29790ft 460kts
09-Dec-17 11:58 47.523410 -120.090448 93 29798ft 455kts
09-Dec-17 11:59 47.514043 -119.904916 93 28994ft 441kts
09-Dec-17 12:00 47.505676 -119.726026 93 26952ft 431kts
09-Dec-17 12:01 47.496883 -119.551542 94 24980ft 420kts
09-Dec-17 12:02 47.488242 -119.387003 94 24785ft 374kts
09-Dec-17 12:03 47.480539 -119.244415 94 24778ft 325kts
09-Dec-17 12:04 47.473178 -119.111292 94 24805ft 328kts
09-Dec-17 12:05 47.465362 -118.973053 94 22254ft 360kts
09-Dec-17 12:06 47.456342 -118.817166 94 18525ft 385kts
09-Dec-17 12:07 47.447568 -118.662465 94 15911ft 369kts
09-Dec-17 12:08 47.438501 -118.514603 95 13937ft 353kts
09-Dec-17 12:09 47.429921 -118.378730 94 13745ft 307kts
09-Dec-17 12:10 47.422595 -118.262675 94 13518ft 261kts
09-Dec-17 12:11 47.416530 -118.167662 94 12978ft 210kts
09-Dec-17 12:12 47.411236 -118.082685 94 11302ft 204kts
09-Dec-17 12:13 47.406839 -118.000533 94 9581ft 197kts
09-Dec-17 12:14 47.406041 -117.921353 78 7904ft 189kts
09-Dec-17 12:15 47.418997 -117.848322 75 6307ft 178kts
09-Dec-17 12:16 47.431508 -117.779894 75 5365ft 168kts
09-Dec-17 12:17 47.443476 -117.713523 75 4224ft 164kts
09-Dec-17 12:18 47.458693 -117.651314 57 4333ft 176kts
09-Dec-17 12:19 47.476446 -117.612444 55 4966ft 209kts
09-Dec-17 12:20 47.489751 -117.583226 55 4979ft 209kts
09-Dec-17 12:21 47.522662 -117.511912 55 4997ft 211kts
09-Dec-17 12:22 47.556229 -117.439564 55 5004ft 213kts
09-Dec-17 12:23 47.594695 -117.356414 55 5030ft 260kts
09-Dec-17 12:24 47.634783 -117.269034 55 5017ft 255kts
09-Dec-17 12:25 47.675113 -117.181540 55 5016ft 256kts
09-Dec-17 12:26 47.715487 -117.094655 50 5008ft 256kts
09-Dec-17 12:27 47.769463 -117.118936 288 5037ft 251kts
09-Dec-17 12:28 47.789802 -117.218025 285 5017ft 250kts
09-Dec-17 12:29 47.809822 -117.316799 285 5009ft 237kts
09-Dec-17 12:30 47.826846 -117.402661 285 5017ft 198kts
09-Dec-17 12:31 47.818789 -117.462125 175 4748ft 164kts
09-Dec-17 12:32 47.777042 -117.434527 156 4001ft 163kts
09-Dec-17 12:33 47.735033 -117.406233 155 4012ft 166kts
09-Dec-17 12:34 47.693422 -117.377936 166 4006ft 165kts
09-Dec-17 12:35 47.671544 -117.428064 255 4066ft 158kts
09-Dec-17 12:36 47.653042 -117.485602 223 3054ft 171kts
09-Dec-17 12:37 47.623172 -117.530174 224 2380ft 120kts
09-Dec-17 12:38 47.614270 -117.543643 200 2380ft 10kts
09-Dec-17 12:39 47.613504 -117.542720 130 2380ft 0kts
09-Dec-17 12:40 47.613166 -117.541807 73 2380ft 11kts
09-Dec-17 12:41 47.617307 -117.535370 44 2380ft 29kts
09-Dec-17 12:42 47.621843 -117.530856 357 2380ft 0kts
09-Dec-17 12:43 47.622090 -117.530868 357 2380ft 9kts
09-Dec-17 12:44 47.623746 -117.531056 346 2380ft 0kts
09-Dec-17 12:45 47.623747 -117.531057 346 2380ft 0kts
09-Dec-17 12:46 47.626092 -117.533426 348 2380ft 0kts
09-Dec-17 12:47 47.626092 -117.533426 348 2380ft 0kts
09-Dec-17 12:48 47.626092 -117.533426 348 2380ft 0kts

Navigation Log

Ident Type
Flight plan parsing failed, navigation log unavailable